sensor_id;sensor_type;location;lat;lon;timestamp;pressure;altitude;pressure_sealevel;temperature;humidity
70952;BME280;69214;55.880;37.542;2023-08-08T00:01:44;98139.50;;;21.61;60.16
70952;BME280;69214;55.880;37.542;2023-08-08T00:04:10;98112.00;;;21.47;61.02
70952;BME280;69214;55.880;37.542;2023-08-08T00:06:37;98116.75;;;21.47;61.45
70952;BME280;69214;55.880;37.542;2023-08-08T00:09:03;98116.94;;;21.42;61.35
70952;BME280;69214;55.880;37.542;2023-08-08T00:11:30;98107.50;;;21.34;61.06
70952;BME280;69214;55.880;37.542;2023-08-08T00:13:57;98104.13;;;21.20;61.14
70952;BME280;69214;55.880;37.542;2023-08-08T00:16:23;98099.59;;;21.15;62.07
70952;BME280;69214;55.880;37.542;2023-08-08T00:18:50;98116.56;;;21.14;62.00
70952;BME280;69214;55.880;37.542;2023-08-08T00:21:20;98101.78;;;21.01;62.77
70952;BME280;69214;55.880;37.542;2023-08-08T00:23:46;98094.50;;;20.88;62.14
70952;BME280;69214;55.880;37.542;2023-08-08T00:26:12;98116.66;;;20.96;62.36
70952;BME280;69214;55.880;37.542;2023-08-08T00:28:38;98106.56;;;20.92;63.12
70952;BME280;69214;55.880;37.542;2023-08-08T00:31:04;98120.59;;;20.87;62.48
70952;BME280;69214;55.880;37.542;2023-08-08T00:33:30;98101.84;;;20.84;62.27
70952;BME280;69214;55.880;37.542;2023-08-08T00:35:56;98113.28;;;20.82;63.19
70952;BME280;69214;55.880;37.542;2023-08-08T00:38:22;98096.97;;;20.81;63.34
70952;BME280;69214;55.880;37.542;2023-08-08T00:40:48;98099.28;;;20.79;63.40
70952;BME280;69214;55.880;37.542;2023-08-08T00:43:14;98091.16;;;20.74;63.39
70952;BME280;69214;55.880;37.542;2023-08-08T00:45:42;98088.88;;;20.76;62.54
70952;BME280;69214;55.880;37.542;2023-08-08T00:48:09;98084.31;;;20.71;63.71
70952;BME280;69214;55.880;37.542;2023-08-08T00:50:42;98092.13;;;20.78;62.49
70952;BME280;69214;55.880;37.542;2023-08-08T00:53:09;98077.13;;;20.79;62.36
70952;BME280;69214;55.880;37.542;2023-08-08T00:55:35;98074.34;;;20.79;63.41
70952;BME280;69214;55.880;37.542;2023-08-08T00:58:02;98072.25;;;20.76;63.18
70952;BME280;69214;55.880;37.542;2023-08-08T01:00:29;98066.06;;;20.70;62.66
70952;BME280;69214;55.880;37.542;2023-08-08T01:02:55;98066.88;;;20.71;63.63
70952;BME280;69214;55.880;37.542;2023-08-08T01:05:21;98084.47;;;20.75;63.16
70952;BME280;69214;55.880;37.542;2023-08-08T01:07:57;98063.31;;;20.61;61.29
70952;BME280;69214;55.880;37.542;2023-08-08T01:10:27;98090.00;;;20.75;62.99
70952;BME280;69214;55.880;37.542;2023-08-08T01:13:00;98068.03;;;20.69;62.29
70952;BME280;69214;55.880;37.542;2023-08-08T01:15:26;98083.31;;;20.76;62.13
70952;BME280;69214;55.880;37.542;2023-08-08T01:17:54;98051.72;;;20.68;62.31
70952;BME280;69214;55.880;37.542;2023-08-08T01:20:21;98059.66;;;20.78;62.01
70952;BME280;69214;55.880;37.542;2023-08-08T01:25:23;98056.69;;;20.83;62.66
70952;BME280;69214;55.880;37.542;2023-08-08T01:27:49;98033.69;;;20.83;63.01
70952;BME280;69214;55.880;37.542;2023-08-08T01:30:15;98036.13;;;20.84;62.32
70952;BME280;69214;55.880;37.542;2023-08-08T01:32:41;98045.06;;;20.90;61.74
70952;BME280;69214;55.880;37.542;2023-08-08T01:35:07;98058.94;;;20.90;62.30
70952;BME280;69214;55.880;37.542;2023-08-08T01:37:44;98050.13;;;20.88;61.86
70952;BME280;69214;55.880;37.542;2023-08-08T01:40:13;98032.19;;;20.85;61.25
70952;BME280;69214;55.880;37.542;2023-08-08T01:42:43;98049.59;;;20.94;61.97
70952;BME280;69214;55.880;37.542;2023-08-08T01:45:11;98035.44;;;20.87;62.33
70952;BME280;69214;55.880;37.542;2023-08-08T01:47:37;98044.06;;;20.94;62.03
70952;BME280;69214;55.880;37.542;2023-08-08T01:50:03;98053.00;;;21.00;62.33
70952;BME280;69214;55.880;37.542;2023-08-08T01:52:30;98045.63;;;21.04;61.97
70952;BME280;69214;55.880;37.542;2023-08-08T01:54:55;98034.69;;;21.08;61.06
70952;BME280;69214;55.880;37.542;2023-08-08T01:57:22;98036.13;;;21.14;60.92
70952;BME280;69214;55.880;37.542;2023-08-08T01:59:48;98030.91;;;21.12;61.31
70952;BME280;69214;55.880;37.542;2023-08-08T02:02:15;98048.97;;;21.18;60.93
70952;BME280;69214;55.880;37.542;2023-08-08T02:04:43;98050.13;;;21.17;60.89
70952;BME280;69214;55.880;37.542;2023-08-08T02:07:09;98056.00;;;21.16;61.35
70952;BME280;69214;55.880;37.542;2023-08-08T02:09:36;98056.00;;;21.16;61.03
70952;BME280;69214;55.880;37.542;2023-08-08T02:12:02;98050.47;;;21.16;61.07
70952;BME280;69214;55.880;37.542;2023-08-08T02:14:28;98048.22;;;21.09;60.99
70952;BME280;69214;55.880;37.542;2023-08-08T02:16:55;98048.22;;;21.09;61.21
70952;BME280;69214;55.880;37.542;2023-08-08T02:19:21;98055.72;;;21.09;60.84
70952;BME280;69214;55.880;37.542;2023-08-08T02:21:47;98051.31;;;21.08;61.15
70952;BME280;69214;55.880;37.542;2023-08-08T02:24:13;98048.22;;;21.09;61.11
70952;BME280;69214;55.880;37.542;2023-08-08T02:26:39;98058.16;;;21.10;61.29
70952;BME280;69214;55.880;37.542;2023-08-08T02:29:08;98064.69;;;21.14;61.08
70952;BME280;69214;55.880;37.542;2023-08-08T02:31:35;98055.19;;;21.15;60.93
70952;BME280;69214;55.880;37.542;2023-08-08T02:34:01;98055.81;;;21.21;60.43
70952;BME280;69214;55.880;37.542;2023-08-08T02:36:26;98061.53;;;21.24;60.81
70952;BME280;69214;55.880;37.542;2023-08-08T02:38:52;98056.47;;;21.26;60.68
70952;BME280;69214;55.880;37.542;2023-08-08T02:41:20;98060.81;;;21.36;60.33
70952;BME280;69214;55.880;37.542;2023-08-08T02:43:47;98060.47;;;21.38;59.74
70952;BME280;69214;55.880;37.542;2023-08-08T02:46:13;98055.28;;;21.57;59.99
70952;BME280;69214;55.880;37.542;2023-08-08T02:48:40;98050.00;;;21.64;59.57
70952;BME280;69214;55.880;37.542;2023-08-08T02:51:06;98046.75;;;21.62;59.93
70952;BME280;69214;55.880;37.542;2023-08-08T02:53:32;98038.16;;;21.55;60.10
70952;BME280;69214;55.880;37.542;2023-08-08T02:55:58;98041.53;;;21.40;60.50
70952;BME280;69214;55.880;37.542;2023-08-08T02:58:27;98043.06;;;21.28;60.90
70952;BME280;69214;55.880;37.542;2023-08-08T03:00:54;98053.03;;;21.21;60.46
70952;BME280;69214;55.880;37.542;2023-08-08T03:03:19;98039.69;;;21.14;61.30
70952;BME280;69214;55.880;37.542;2023-08-08T03:05:46;98041.09;;;20.99;61.69
70952;BME280;69214;55.880;37.542;2023-08-08T03:08:14;98063.25;;;21.08;61.89
70952;BME280;69214;55.880;37.542;2023-08-08T03:10:43;98060.13;;;21.10;61.62
70952;BME280;69214;55.880;37.542;2023-08-08T03:13:10;98062.56;;;21.11;61.28
70952;BME280;69214;55.880;37.542;2023-08-08T03:15:37;98052.75;;;21.14;61.70
70952;BME280;69214;55.880;37.542;2023-08-08T03:18:04;98049.19;;;21.13;61.62
70952;BME280;69214;55.880;37.542;2023-08-08T03:20:30;98059.94;;;21.15;60.83
70952;BME280;69214;55.880;37.542;2023-08-08T03:22:57;98053.09;;;21.12;62.01
70952;BME280;69214;55.880;37.542;2023-08-08T03:25:23;98051.47;;;21.11;61.87
70952;BME280;69214;55.880;37.542;2023-08-08T03:27:49;98046.13;;;21.06;61.13
70952;BME280;69214;55.880;37.542;2023-08-08T03:30:15;98075.09;;;21.17;61.33
70952;BME280;69214;55.880;37.542;2023-08-08T03:32:43;98064.81;;;21.18;61.93
70952;BME280;69214;55.880;37.542;2023-08-08T03:35:08;98055.69;;;21.47;60.12
70952;BME280;69214;55.880;37.542;2023-08-08T03:37:39;98056.34;;;21.64;59.84
70952;BME280;69214;55.880;37.542;2023-08-08T03:40:06;98056.63;;;21.72;60.23
70952;BME280;69214;55.880;37.542;2023-08-08T03:42:33;98066.72;;;21.76;60.48
70952;BME280;69214;55.880;37.542;2023-08-08T03:45:00;98066.50;;;21.81;59.94
70952;BME280;69214;55.880;37.542;2023-08-08T03:47:26;98073.16;;;21.89;60.04
70952;BME280;69214;55.880;37.542;2023-08-08T03:49:53;98073.06;;;21.97;59.95
70952;BME280;69214;55.880;37.542;2023-08-08T03:52:21;98081.28;;;22.15;58.60
70952;BME280;69214;55.880;37.542;2023-08-08T03:54:46;98068.19;;;22.15;58.71
70952;BME280;69214;55.880;37.542;2023-08-08T03:57:13;98088.50;;;22.28;58.81
70952;BME280;69214;55.880;37.542;2023-08-08T03:59:39;98076.34;;;22.33;58.27
70952;BME280;69214;55.880;37.542;2023-08-08T04:02:05;98077.63;;;22.35;57.57
70952;BME280;69214;55.880;37.542;2023-08-08T04:04:31;98083.75;;;22.28;58.13
70952;BME280;69214;55.880;37.542;2023-08-08T04:06:57;98072.25;;;22.18;58.26
70952;BME280;69214;55.880;37.542;2023-08-08T04:09:23;98082.44;;;22.14;58.49
70952;BME280;69214;55.880;37.542;2023-08-08T04:11:49;98073.16;;;22.10;58.36
70952;BME280;69214;55.880;37.542;2023-08-08T04:14:16;98083.38;;;22.18;58.23
70952;BME280;69214;55.880;37.542;2023-08-08T04:16:42;98079.56;;;22.22;58.08
70952;BME280;69214;55.880;37.542;2023-08-08T04:19:08;98069.38;;;22.26;57.72
70952;BME280;69214;55.880;37.542;2023-08-08T04:21:34;98083.88;;;22.32;58.36
70952;BME280;69214;55.880;37.542;2023-08-08T04:24:02;98069.28;;;22.35;57.69
70952;BME280;69214;55.880;37.542;2023-08-08T04:26:28;98078.09;;;22.37;57.43
70952;BME280;69214;55.880;37.542;2023-08-08T04:28:53;98072.50;;;22.25;58.07
70952;BME280;69214;55.880;37.542;2023-08-08T04:31:21;98083.16;;;22.23;58.03
70952;BME280;69214;55.880;37.542;2023-08-08T04:33:50;98079.66;;;22.14;58.25
70952;BME280;69214;55.880;37.542;2023-08-08T04:36:15;98085.28;;;22.05;58.37
70952;BME280;69214;55.880;37.542;2023-08-08T04:38:42;98090.88;;;21.96;58.56
70952;BME280;69214;55.880;37.542;2023-08-08T04:41:08;98092.72;;;21.92;59.00
70952;BME280;69214;55.880;37.542;2023-08-08T04:43:34;98092.72;;;21.92;58.68
70952;BME280;69214;55.880;37.542;2023-08-08T04:45:59;98094.22;;;21.90;59.39
70952;BME280;69214;55.880;37.542;2023-08-08T04:48:25;98086.56;;;21.87;59.09
70952;BME280;69214;55.880;37.542;2023-08-08T04:50:51;98086.56;;;21.87;59.47
70952;BME280;69214;55.880;37.542;2023-08-08T04:53:17;98082.75;;;21.91;59.48
70952;BME280;69214;55.880;37.542;2023-08-08T04:55:42;98092.50;;;21.97;58.97
70952;BME280;69214;55.880;37.542;2023-08-08T04:58:08;98087.44;;;21.99;59.15
70952;BME280;69214;55.880;37.542;2023-08-08T05:00:34;98091.19;;;22.04;59.35
70952;BME280;69214;55.880;37.542;2023-08-08T05:03:00;98085.63;;;22.04;59.14
70952;BME280;69214;55.880;37.542;2023-08-08T05:05:27;98092.47;;;22.06;59.61
70952;BME280;69214;55.880;37.542;2023-08-08T05:07:52;98090.97;;;22.09;59.62
70952;BME280;69214;55.880;37.542;2023-08-08T05:10:18;98092.59;;;22.10;59.37
70952;BME280;69214;55.880;37.542;2023-08-08T05:12:44;98083.25;;;22.14;59.17
70952;BME280;69214;55.880;37.542;2023-08-08T05:15:10;98092.38;;;22.15;59.55
70952;BME280;69214;55.880;37.542;2023-08-08T05:17:36;98099.69;;;22.19;59.34
70952;BME280;69214;55.880;37.542;2023-08-08T05:20:02;98098.53;;;22.20;59.96
70952;BME280;69214;55.880;37.542;2023-08-08T05:22:30;98098.81;;;22.27;59.11
70952;BME280;69214;55.880;37.542;2023-08-08T05:24:56;98123.78;;;22.48;58.98
70952;BME280;69214;55.880;37.542;2023-08-08T05:27:22;98116.97;;;22.58;58.91
70952;BME280;69214;55.880;37.542;2023-08-08T05:29:48;98115.38;;;22.69;58.42
70952;BME280;69214;55.880;37.542;2023-08-08T05:32:14;98113.19;;;22.75;58.45
70952;BME280;69214;55.880;37.542;2023-08-08T05:34:39;98104.38;;;22.73;58.67
70952;BME280;69214;55.880;37.542;2023-08-08T05:37:05;98107.97;;;22.73;58.90
70952;BME280;69214;55.880;37.542;2023-08-08T05:39:31;98103.34;;;22.77;58.50
70952;BME280;69214;55.880;37.542;2023-08-08T05:41:57;98093.72;;;22.75;58.74
70952;BME280;69214;55.880;37.542;2023-08-08T05:44:23;98098.81;;;22.73;58.48
70952;BME280;69214;55.880;37.542;2023-08-08T05:46:49;98091.94;;;22.58;58.75
70952;BME280;69214;55.880;37.542;2023-08-08T05:49:14;98099.72;;;22.65;58.98
70952;BME280;69214;55.880;37.542;2023-08-08T05:51:40;98099.16;;;22.71;58.73
70952;BME280;69214;55.880;37.542;2023-08-08T05:54:06;98102.94;;;23.24;57.91
70952;BME280;69214;55.880;37.542;2023-08-08T05:56:36;98111.00;;;24.30;55.70
70952;BME280;69214;55.880;37.542;2023-08-08T05:59:03;98105.75;;;25.00;53.79
70952;BME280;69214;55.880;37.542;2023-08-08T06:01:30;98102.53;;;25.65;52.53
70952;BME280;69214;55.880;37.542;2023-08-08T06:03:56;98100.34;;;26.51;50.05
70952;BME280;69214;55.880;37.542;2023-08-08T06:06:24;98092.31;;;27.64;47.90
70952;BME280;69214;55.880;37.542;2023-08-08T06:08:49;98101.63;;;29.46;44.82
70952;BME280;69214;55.880;37.542;2023-08-08T06:11:15;98097.44;;;32.06;39.16
70952;BME280;69214;55.880;37.542;2023-08-08T06:13:41;98112.19;;;34.12;36.63
70952;BME280;69214;55.880;37.542;2023-08-08T06:16:07;98111.22;;;34.60;35.13
70952;BME280;69214;55.880;37.542;2023-08-08T06:18:33;98119.38;;;33.83;36.83
70952;BME280;69214;55.880;37.542;2023-08-08T06:20:59;98106.81;;;32.83;37.23
70952;BME280;69214;55.880;37.542;2023-08-08T06:23:25;98107.97;;;31.92;38.89
70952;BME280;69214;55.880;37.542;2023-08-08T06:25:51;98110.81;;;31.03;40.35
70952;BME280;69214;55.880;37.542;2023-08-08T06:28:16;98113.31;;;30.10;42.22
70952;BME280;69214;55.880;37.542;2023-08-08T06:30:42;98113.13;;;29.30;43.74
70952;BME280;69214;55.880;37.542;2023-08-08T06:33:08;98118.50;;;28.65;45.08
70952;BME280;69214;55.880;37.542;2023-08-08T06:35:34;98119.69;;;28.30;46.01
70952;BME280;69214;55.880;37.542;2023-08-08T06:38:00;98120.59;;;28.08;46.21
70952;BME280;69214;55.880;37.542;2023-08-08T06:40:26;98120.09;;;27.72;47.00
70952;BME280;69214;55.880;37.542;2023-08-08T06:42:52;98115.94;;;27.40;47.59
70952;BME280;69214;55.880;37.542;2023-08-08T06:45:18;98114.84;;;27.22;48.17
70952;BME280;69214;55.880;37.542;2023-08-08T06:47:45;98132.47;;;27.71;47.19
70952;BME280;69214;55.880;37.542;2023-08-08T06:50:11;98118.41;;;27.94;46.79
70952;BME280;69214;55.880;37.542;2023-08-08T06:52:37;98126.00;;;27.94;46.82
70952;BME280;69214;55.880;37.542;2023-08-08T06:55:03;98110.78;;;27.95;46.39
70952;BME280;69214;55.880;37.542;2023-08-08T06:57:33;98111.53;;;28.52;46.66
70952;BME280;69214;55.880;37.542;2023-08-08T07:00:00;98116.41;;;29.40;43.85
70952;BME280;69214;55.880;37.542;2023-08-08T07:02:26;98118.50;;;30.01;42.61
70952;BME280;69214;55.880;37.542;2023-08-08T07:04:51;98110.63;;;30.39;41.90
70952;BME280;69214;55.880;37.542;2023-08-08T07:07:17;98120.88;;;31.78;40.26
70952;BME280;69214;55.880;37.542;2023-08-08T07:09:43;98123.94;;;34.10;36.18
70952;BME280;69214;55.880;37.542;2023-08-08T07:12:09;98127.53;;;36.30;32.82
70952;BME280;69214;55.880;37.542;2023-08-08T07:14:35;98138.38;;;38.37;30.14
70952;BME280;69214;55.880;37.542;2023-08-08T07:17:00;98138.22;;;38.57;29.29
70952;BME280;69214;55.880;37.542;2023-08-08T07:19:28;98147.59;;;38.29;29.66
70952;BME280;69214;55.880;37.542;2023-08-08T07:21:54;98142.78;;;38.54;29.56
70952;BME280;69214;55.880;37.542;2023-08-08T07:24:20;98148.78;;;38.44;28.87
70952;BME280;69214;55.880;37.542;2023-08-08T07:26:46;98145.09;;;37.69;30.30
70952;BME280;69214;55.880;37.542;2023-08-08T07:29:12;98147.16;;;36.60;31.29
70952;BME280;69214;55.880;37.542;2023-08-08T07:31:38;98143.03;;;35.79;32.32
70952;BME280;69214;55.880;37.542;2023-08-08T07:34:03;98139.59;;;34.56;33.90
70952;BME280;69214;55.880;37.542;2023-08-08T07:36:29;98140.47;;;33.74;35.61
70952;BME280;69214;55.880;37.542;2023-08-08T07:38:55;98132.41;;;33.17;35.98
70952;BME280;69214;55.880;37.542;2023-08-08T07:41:26;98145.50;;;33.53;36.90
70952;BME280;69214;55.880;37.542;2023-08-08T07:43:53;98143.28;;;33.74;35.55
70952;BME280;69214;55.880;37.542;2023-08-08T07:46:18;98124.81;;;34.04;34.92
70952;BME280;69214;55.880;37.542;2023-08-08T07:48:44;98148.09;;;34.56;34.20
70952;BME280;69214;55.880;37.542;2023-08-08T07:51:10;98142.44;;;33.81;34.98
70952;BME280;69214;55.880;37.542;2023-08-08T07:53:36;98147.75;;;32.43;36.87
70952;BME280;69214;55.880;37.542;2023-08-08T07:56:02;98101.16;;;31.00;39.12
70952;BME280;69214;55.880;37.542;2023-08-08T07:58:27;98150.19;;;30.71;40.68
70952;BME280;69214;55.880;37.542;2023-08-08T08:00:53;98146.50;;;30.56;40.38
70952;BME280;69214;55.880;37.542;2023-08-08T08:03:20;98147.72;;;29.86;41.89
70952;BME280;69214;55.880;37.542;2023-08-08T08:05:46;98151.75;;;28.96;43.46
70952;BME280;69214;55.880;37.542;2023-08-08T08:08:12;98149.03;;;28.36;44.60
70952;BME280;69214;55.880;37.542;2023-08-08T08:10:38;98142.81;;;27.94;45.66
70952;BME280;69214;55.880;37.542;2023-08-08T08:13:04;98166.88;;;27.68;45.96
70952;BME280;69214;55.880;37.542;2023-08-08T08:15:30;98150.75;;;27.39;46.96
70952;BME280;69214;55.880;37.542;2023-08-08T08:17:56;98162.91;;;27.24;46.84
70952;BME280;69214;55.880;37.542;2023-08-08T08:20:22;98160.53;;;27.03;47.52
70952;BME280;69214;55.880;37.542;2023-08-08T08:22:48;98142.72;;;26.92;47.69
70952;BME280;69214;55.880;37.542;2023-08-08T08:25:14;98148.66;;;27.32;47.04
70952;BME280;69214;55.880;37.542;2023-08-08T08:27:40;98149.69;;;27.70;45.91
70952;BME280;69214;55.880;37.542;2023-08-08T08:30:07;98163.03;;;28.06;45.68
70952;BME280;69214;55.880;37.542;2023-08-08T08:32:36;98158.59;;;28.32;44.92
70952;BME280;69214;55.880;37.542;2023-08-08T08:35:03;98173.34;;;28.25;45.22
70952;BME280;69214;55.880;37.542;2023-08-08T08:37:32;98175.28;;;27.95;45.74
70952;BME280;69214;55.880;37.542;2023-08-08T08:39:59;98175.84;;;27.55;46.75
70952;BME280;69214;55.880;37.542;2023-08-08T08:42:28;98168.19;;;27.06;46.67
70952;BME280;69214;55.880;37.542;2023-08-08T08:44:57;98162.72;;;26.52;47.77
70952;BME280;69214;55.880;37.542;2023-08-08T08:47:24;98154.13;;;25.87;50.19
70952;BME280;69214;55.880;37.542;2023-08-08T08:49:52;98177.53;;;25.47;50.47
70952;BME280;69214;55.880;37.542;2023-08-08T08:52:18;98172.84;;;25.20;52.27
70952;BME280;69214;55.880;37.542;2023-08-08T08:54:44;98177.16;;;25.33;51.84
70952;BME280;69214;55.880;37.542;2023-08-08T08:57:11;98179.31;;;25.71;50.71
70952;BME280;69214;55.880;37.542;2023-08-08T08:59:37;98182.63;;;25.92;50.54
70952;BME280;69214;55.880;37.542;2023-08-08T09:02:03;98183.28;;;26.05;50.95
70952;BME280;69214;55.880;37.542;2023-08-08T09:04:30;98187.63;;;26.22;50.70
70952;BME280;69214;55.880;37.542;2023-08-08T09:06:56;98189.69;;;26.40;50.53
70952;BME280;69214;55.880;37.542;2023-08-08T09:09:22;98182.03;;;26.57;50.03
70952;BME280;69214;55.880;37.542;2023-08-08T09:11:53;98191.22;;;26.76;48.65
70952;BME280;69214;55.880;37.542;2023-08-08T09:14:25;98175.09;;;26.70;48.92
70952;BME280;69214;55.880;37.542;2023-08-08T09:16:53;98177.72;;;26.82;49.25
70952;BME280;69214;55.880;37.542;2023-08-08T09:19:20;98177.03;;;27.08;49.08
70952;BME280;69214;55.880;37.542;2023-08-08T09:21:47;98184.44;;;27.20;49.34
70952;BME280;69214;55.880;37.542;2023-08-08T09:24:13;98180.03;;;27.19;48.91
70952;BME280;69214;55.880;37.542;2023-08-08T09:26:40;98164.84;;;26.97;49.56
70952;BME280;69214;55.880;37.542;2023-08-08T09:29:06;98194.22;;;27.06;49.79
70952;BME280;69214;55.880;37.542;2023-08-08T09:31:34;98181.22;;;27.18;48.79
70952;BME280;69214;55.880;37.542;2023-08-08T09:34:02;98184.69;;;27.57;48.59
70952;BME280;69214;55.880;37.542;2023-08-08T09:36:28;98190.75;;;28.12;47.50
70952;BME280;69214;55.880;37.542;2023-08-08T09:38:55;98187.50;;;28.66;46.62
70952;BME280;69214;55.880;37.542;2023-08-08T09:41:24;98185.06;;;28.98;45.83
70952;BME280;69214;55.880;37.542;2023-08-08T09:44:10;98197.81;;;29.25;45.48
70952;BME280;69214;55.880;37.542;2023-08-08T09:46:37;98195.53;;;29.01;45.89
70952;BME280;69214;55.880;37.542;2023-08-08T09:49:05;98206.72;;;28.64;46.45
70952;BME280;69214;55.880;37.542;2023-08-08T09:51:31;98198.59;;;28.25;47.89
70952;BME280;69214;55.880;37.542;2023-08-08T09:53:56;98191.03;;;28.03;48.23
70952;BME280;69214;55.880;37.542;2023-08-08T09:56:24;98195.78;;;27.99;48.24
70952;BME280;69214;55.880;37.542;2023-08-08T09:58:51;98199.44;;;27.77;48.53
70952;BME280;69214;55.880;37.542;2023-08-08T10:01:19;98192.84;;;27.42;48.73
70952;BME280;69214;55.880;37.542;2023-08-08T10:03:45;98199.53;;;27.34;49.74
70952;BME280;69214;55.880;37.542;2023-08-08T10:06:13;98188.44;;;27.41;49.31
70952;BME280;69214;55.880;37.542;2023-08-08T10:08:39;98197.47;;;27.54;49.43
70952;BME280;69214;55.880;37.542;2023-08-08T10:11:06;98186.31;;;27.58;48.41
70952;BME280;69214;55.880;37.542;2023-08-08T10:13:34;98196.75;;;27.84;48.24
70952;BME280;69214;55.880;37.542;2023-08-08T10:16:07;98204.72;;;28.08;47.72
70952;BME280;69214;55.880;37.542;2023-08-08T10:18:33;98187.47;;;28.06;47.35
70952;BME280;69214;55.880;37.542;2023-08-08T10:20:59;98207.09;;;28.06;47.29
70952;BME280;69214;55.880;37.542;2023-08-08T10:23:26;98207.28;;;27.90;47.96
70952;BME280;69214;55.880;37.542;2023-08-08T10:26:01;98208.34;;;27.82;48.15
70952;BME280;69214;55.880;37.542;2023-08-08T10:28:28;98209.53;;;28.08;47.46
70952;BME280;69214;55.880;37.542;2023-08-08T10:30:56;98211.34;;;28.49;46.69
70952;BME280;69214;55.880;37.542;2023-08-08T10:38:24;98215.50;;;28.92;44.99
70952;BME280;69214;55.880;37.542;2023-08-08T10:40:58;98220.41;;;28.69;46.12
70952;BME280;69214;55.880;37.542;2023-08-08T10:43:28;98224.00;;;28.66;46.08
70952;BME280;69214;55.880;37.542;2023-08-08T10:45:59;98224.16;;;28.47;46.20
70952;BME280;69214;55.880;37.542;2023-08-08T10:48:25;98216.28;;;28.29;45.64
70952;BME280;69214;55.880;37.542;2023-08-08T10:50:55;98230.94;;;28.46;46.22
70952;BME280;69214;55.880;37.542;2023-08-08T10:53:27;98230.47;;;28.70;45.97
70952;BME280;69214;55.880;37.542;2023-08-08T10:56:03;98239.53;;;28.86;45.48
70952;BME280;69214;55.880;37.542;2023-08-08T10:58:37;98245.25;;;28.97;45.40
70952;BME280;69214;55.880;37.542;2023-08-08T11:01:04;98239.31;;;29.02;44.85
70952;BME280;69214;55.880;37.542;2023-08-08T11:03:36;98246.16;;;28.75;45.56
70952;BME280;69214;55.880;37.542;2023-08-08T11:06:03;98241.84;;;28.51;46.01
70952;BME280;69214;55.880;37.542;2023-08-08T11:08:30;98229.47;;;28.25;46.16
70952;BME280;69214;55.880;37.542;2023-08-08T11:10:57;98241.63;;;28.10;46.95
70952;BME280;69214;55.880;37.542;2023-08-08T11:13:22;98243.28;;;27.88;47.40
70952;BME280;69214;55.880;37.542;2023-08-08T11:15:48;98241.56;;;27.57;48.23
70952;BME280;69214;55.880;37.542;2023-08-08T11:18:14;98237.75;;;27.46;48.21
70952;BME280;69214;55.880;37.542;2023-08-08T11:20:40;98212.97;;;27.48;48.15
70952;BME280;69214;55.880;37.542;2023-08-08T11:23:06;98237.94;;;27.80;47.98
70952;BME280;69214;55.880;37.542;2023-08-08T11:25:36;98230.78;;;28.09;47.58
70952;BME280;69214;55.880;37.542;2023-08-08T11:28:02;98237.69;;;28.41;46.78
70952;BME280;69214;55.880;37.542;2023-08-08T11:30:30;98233.84;;;28.53;46.60
70952;BME280;69214;55.880;37.542;2023-08-08T11:32:58;98239.22;;;28.65;46.19
70952;BME280;69214;55.880;37.542;2023-08-08T11:35:25;98241.25;;;28.68;46.07
70952;BME280;69214;55.880;37.542;2023-08-08T11:37:54;98244.41;;;28.63;46.31
70952;BME280;69214;55.880;37.542;2023-08-08T11:40:22;98244.69;;;28.54;46.57
70952;BME280;69214;55.880;37.542;2023-08-08T11:42:51;98249.22;;;28.62;46.46
70952;BME280;69214;55.880;37.542;2023-08-08T11:45:17;98241.78;;;28.77;46.01
70952;BME280;69214;55.880;37.542;2023-08-08T11:47:43;98243.91;;;28.84;46.05
70952;BME280;69214;55.880;37.542;2023-08-08T11:50:10;98254.03;;;28.62;46.48
70952;BME280;69214;55.880;37.542;2023-08-08T11:52:42;98258.81;;;28.31;46.81
70952;BME280;69214;55.880;37.542;2023-08-08T11:55:09;98250.25;;;27.98;47.67
70952;BME280;69214;55.880;37.542;2023-08-08T11:57:41;98241.38;;;27.69;48.11
70952;BME280;69214;55.880;37.542;2023-08-08T12:00:11;98254.91;;;27.64;48.21
70952;BME280;69214;55.880;37.542;2023-08-08T12:02:42;98250.13;;;27.64;48.72
70952;BME280;69214;55.880;37.542;2023-08-08T12:05:13;98251.84;;;27.72;48.83
70952;BME280;69214;55.880;37.542;2023-08-08T12:07:42;98240.56;;;27.69;48.90
70952;BME280;69214;55.880;37.542;2023-08-08T12:10:16;98227.81;;;27.71;48.36
70952;BME280;69214;55.880;37.542;2023-08-08T12:12:46;98232.41;;;27.83;48.55
70952;BME280;69214;55.880;37.542;2023-08-08T12:15:12;98243.31;;;28.15;47.88
70952;BME280;69214;55.880;37.542;2023-08-08T12:17:39;98248.53;;;28.43;47.15
70952;BME280;69214;55.880;37.542;2023-08-08T12:20:07;98241.75;;;28.44;47.00
70952;BME280;69214;55.880;37.542;2023-08-08T12:22:33;98237.06;;;28.25;47.57
70952;BME280;69214;55.880;37.542;2023-08-08T12:24:59;98234.88;;;28.15;48.13
70952;BME280;69214;55.880;37.542;2023-08-08T12:27:25;98248.41;;;28.32;47.71
70952;BME280;69214;55.880;37.542;2023-08-08T12:29:51;98251.13;;;28.55;47.31
70952;BME280;69214;55.880;37.542;2023-08-08T12:32:21;98256.13;;;28.68;47.23
70952;BME280;69214;55.880;37.542;2023-08-08T12:34:50;98259.41;;;28.74;46.60
70952;BME280;69214;55.880;37.542;2023-08-08T12:37:16;98257.25;;;28.64;47.09
70952;BME280;69214;55.880;37.542;2023-08-08T12:39:42;98251.03;;;28.48;46.70
70952;BME280;69214;55.880;37.542;2023-08-08T12:42:08;98264.69;;;28.49;46.97
70952;BME280;69214;55.880;37.542;2023-08-08T12:44:34;98238.75;;;28.59;46.93
70952;BME280;69214;55.880;37.542;2023-08-08T12:46:59;98260.19;;;29.05;46.13
70952;BME280;69214;55.880;37.542;2023-08-08T12:49:25;98257.19;;;29.24;45.83
70952;BME280;69214;55.880;37.542;2023-08-08T12:51:52;98248.81;;;29.27;45.62
70952;BME280;69214;55.880;37.542;2023-08-08T12:54:18;98243.78;;;29.44;45.48
70952;BME280;69214;55.880;37.542;2023-08-08T12:56:44;98248.34;;;29.59;45.17